Saturday, March 07, 2015
00:08 UTC
  |  Log In   |  Register Free
Airport Search:

Owatonna Degner Regional Airport
(KOWA)

Owatonna Degner Regional Airport Diagram
No Airport Diagram Available

FAA data valid effective March 05, 2015 - April 30, 2015 (unless otherwise noted).

 
 
 
 
 
 
 
 
 
 
 
 
 
 

Current Aviation Weather for Owatonna Degner Regional Airport (KOWA)

The most recent METAR observation for KOWA was updated at: 2313
METAR Summary (Translated METAR)
KOWA
062255Z AUTO 28011G18KT 10SM CLR 02/M05 A3006 RMK AO2
KFBL
062254Z AUTO 28010G17KT 10SM CLR 02/M06 A3006 RMK AO2
(12.5 nm NW from KOWA)
KACQ
062359Z AUTO 29007KT 10SM SCT120 01/M04 A3009 RMK AO2
(13 nm SW from KOWA)
TAF
No TAF information found within 50 nm of KOWA
  Airport Weather Conditions for KOWA

 Current Weather at OWA
36° F
Fair
West winds at 12.7 mph
OWA NOAA Radar

Pressure: 30.06 in
Humidity: 60%
Wind: from the West at 12.7 gusting to 20.7 MPH (11 gusting to 18 KT)
Dew Point: 23.0°F
Visibility: 10.00 mi


Airport Weather Forecast for KOWA

Translated METAR and TAF for KOWA
Translated METAR for KOWA (0008 UTC 07 March 2015)
found at http://aviationweather.gov/adds/metars/
 
METAR text: KOWA 062355Z AUTO 29010KT 10SM CLR 01/M06 A3007 RMK AO2
Conditions at: KOWA (OWATONNA , MN, US) observed 2355 UTC 06 March 2015
Temperature: 1.0°C (34°F)
Dewpoint: -6.0°C (21°F) [RH = 59%]
Pressure (altimeter): 30.07 inches Hg (1018.4 mb)
Winds: from the WNW (290 degrees) at 12 MPH (10 knots; 5.2 m/s)
Visibility: 10 or more miles (16+ km)
Ceiling: at least 12,000 feet AGL
Clouds: sky clear below 12,000 feet AGL
Weather: automated observation with no human augmentation;
there may or may not be significant weather present at this time
Translated TAF for KOWA

There is no translated TAF available for this airport

Find All Airport Services Find A Hotel Find A Rental Car Find A Golf Course Find A Restaurant $100 Hamburger



FBO's on the Field
FBO Company Facility Photos Services Transportation Aviation Fuel Prices: Prices include tax
Catering Weather Repair Courtesy Rental Type 100LL JetA JetA+ MOGAS 8087
 
Owatonna Degner Regional Airport

This FBO has not yet been rated
FS:Avfuel
Last Updated: Feb-11
Login to update fuel prices
SS:
Contact Owatonna Degner Regional AirportMore FBO Information
 
Add another FBO Facility Photos Catering Weather Repair Courtesy Rental Type 100LL JetA JetA+ MOGAS 8087
Services Transportation Aviation Fuel Prices: Prices include tax


model-print
model-print
model-print
model-print